Time;durP1;ratioP1;P1;durP2;ratioP2;P2;SDS_P1;SDS_P2;PMS_P1;PMS_P2;Temp;Humidity;BMP_temperature;BMP_pressure;BME280_temperature;BME280_humidity;BME280_pressure;Samples;Min_cycle;Max_cycle;Signal;HPM_P1;HPM_P2
2022/05/16 00:00:14;;;;;;;10.82;4.07;;;15.40;99.90;;;;;;5099938;28;20120;-60
2022/05/16 00:02:40;;;;;;;11.45;4.32;;;15.30;99.90;;;;;;5097188;28;20118;-60
2022/05/16 00:05:07;;;;;;;9.30;4.03;;;15.20;99.90;;;;;;5096629;28;20119;-60
2022/05/16 00:07:34;;;;;;;10.35;4.35;;;15.30;99.90;;;;;;5102307;28;20047;-60
2022/05/16 00:10:00;;;;;;;10.25;4.13;;;15.30;99.90;;;;;;5084139;28;20062;-60
2022/05/16 00:12:25;;;;;;;14.45;4.95;;;15.30;99.90;;;;;;5103665;28;20086;-59
2022/05/16 00:14:51;;;;;;;9.85;4.47;;;15.20;99.90;;;;;;5098851;28;20331;-59
2022/05/16 00:17:18;;;;;;;13.25;4.57;;;15.30;99.90;;;;;;5101811;28;20360;-59
2022/05/16 00:19:44;;;;;;;11.43;3.88;;;15.20;99.90;;;;;;5103059;28;20511;-60
2022/05/16 00:22:10;;;;;;;10.15;4.50;;;15.10;99.90;;;;;;5101497;28;20122;-59
2022/05/16 00:24:39;;;;;;;10.32;4.40;;;15.00;99.90;;;;;;5099945;28;20039;-59
2022/05/16 00:27:05;;;;;;;12.98;4.18;;;15.20;99.90;;;;;;5086221;28;20076;-59
2022/05/16 00:29:30;;;;;;;11.07;4.13;;;15.10;99.90;;;;;;5099631;28;20037;-60
2022/05/16 00:31:57;;;;;;;9.93;3.97;;;15.00;99.90;;;;;;5101184;28;20086;-59
2022/05/16 00:34:23;;;;;;;9.48;3.90;;;15.10;99.90;;;;;;5098800;28;20321;-60
2022/05/16 00:36:49;;;;;;;12.65;4.63;;;15.00;99.90;;;;;;5101199;28;20043;-60
2022/05/16 00:39:16;;;;;;;12.60;3.92;;;15.00;99.90;;;;;;5101552;28;20043;-60
2022/05/16 00:41:43;;;;;;;10.45;4.03;;;15.00;99.90;;;;;;5085658;28;20036;-60
2022/05/16 00:44:09;;;;;;;9.88;3.72;;;15.00;99.90;;;;;;5084471;28;20040;-59
2022/05/16 00:46:35;;;;;;;11.32;4.53;;;14.90;99.90;;;;;;5083165;28;20544;-59
2022/05/16 00:49:03;;;;;;;10.77;3.92;;;14.90;99.90;;;;;;5103857;28;20059;-60
2022/05/16 00:51:32;;;;;;;9.60;4.05;;;15.00;99.90;;;;;;5098068;28;20042;-59
2022/05/16 00:54:05;;;;;;;13.63;4.13;;;15.00;99.90;;;;;;5098165;28;20043;-59
2022/05/16 00:56:32;;;;;;;8.90;3.95;;;14.90;99.90;;;;;;5098543;28;20039;-59
2022/05/16 00:58:58;;;;;;;10.93;3.67;;;15.00;99.90;;;;;;5101494;28;20115;-60
2022/05/16 01:06:57;;;;;;;12.70;4.22;;;15.00;99.90;;;;;;5098025;28;20047;-59
2022/05/16 01:09:23;;;;;;;8.35;4.25;;;14.90;99.90;;;;;;5100131;28;20097;-58
2022/05/16 01:11:49;;;;;;;14.77;4.47;;;14.90;99.90;;;;;;5101726;28;20047;-59
2022/05/16 01:14:37;;;;;;;8.88;3.85;;;14.90;99.90;;;;;;5101391;28;20071;-59
2022/05/16 01:17:03;;;;;;;8.98;3.88;;;14.90;99.90;;;;;;5102102;28;20062;-59
2022/05/16 01:19:29;;;;;;;11.10;4.10;;;14.80;99.90;;;;;;5099944;28;20523;-59
2022/05/16 01:21:59;;;;;;;13.32;4.45;;;14.90;99.90;;;;;;5101238;28;20028;-59
2022/05/16 01:24:25;;;;;;;8.35;4.40;;;14.90;99.90;;;;;;5084044;28;20084;-59
2022/05/16 01:26:52;;;;;;;12.43;4.30;;;14.80;99.90;;;;;;5094755;28;20075;-59
2022/05/16 01:29:19;;;;;;;10.68;4.32;;;14.80;99.90;;;;;;5099290;28;20043;-60
2022/05/16 01:31:45;;;;;;;10.45;3.95;;;14.80;99.90;;;;;;5101544;28;20114;-59
2022/05/16 01:34:11;;;;;;;9.98;4.20;;;14.70;99.90;;;;;;5083820;28;20123;-59
2022/05/16 01:36:38;;;;;;;9.85;3.65;;;14.70;99.90;;;;;;5096770;28;20134;-59
2022/05/16 01:39:05;;;;;;;11.07;4.18;;;14.70;99.90;;;;;;5084900;28;20476;-59
2022/05/16 01:41:31;;;;;;;11.15;3.90;;;14.70;99.90;;;;;;5100063;28;20039;-59
2022/05/16 01:44:00;;;;;;;11.65;4.30;;;14.80;99.90;;;;;;5101589;28;20043;-59
2022/05/16 01:46:33;;;;;;;15.50;4.45;;;14.70;99.90;;;;;;5097350;28;20043;-59
2022/05/16 01:49:00;;;;;;;10.70;4.30;;;14.60;99.90;;;;;;5101876;28;20074;-59
2022/05/16 01:51:25;;;;;;;10.65;4.00;;;14.60;99.90;;;;;;5099254;28;20331;-59
2022/05/16 01:53:52;;;;;;;10.70;4.55;;;14.70;99.90;;;;;;5100962;28;20044;-59
2022/05/16 01:56:18;;;;;;;12.38;4.70;;;14.70;99.90;;;;;;5096904;28;20036;-60
2022/05/16 01:58:44;;;;;;;11.75;4.63;;;14.60;99.90;;;;;;5099419;28;20482;-59
2022/05/16 02:01:11;;;;;;;12.57;4.90;;;14.60;99.90;;;;;;5100785;28;20044;-59
2022/05/16 02:03:40;;;;;;;12.30;4.03;;;14.60;99.90;;;;;;5084241;28;20051;-59
2022/05/16 02:06:06;;;;;;;15.18;4.55;;;14.60;99.90;;;;;;5091245;28;20055;-59
2022/05/16 02:08:33;;;;;;;13.73;5.07;;;14.50;99.90;;;;;;5101820;28;20372;-60
2022/05/16 02:11:03;;;;;;;9.73;4.18;;;14.50;99.90;;;;;;5104945;28;20044;-59
2022/05/16 02:13:32;;;;;;;10.07;4.43;;;14.50;99.90;;;;;;5099541;28;20033;-60
2022/05/16 02:15:59;;;;;;;8.80;4.03;;;14.40;99.90;;;;;;5103196;28;20122;-59
2022/05/16 02:18:25;;;;;;;10.20;3.85;;;14.40;99.90;;;;;;5105561;28;20100;-59
2022/05/16 02:20:51;;;;;;;10.20;4.43;;;14.40;99.90;;;;;;5104049;28;20043;-59
2022/05/16 02:26:01;;;;;;;9.77;4.15;;;14.40;99.90;;;;;;5099784;28;20055;-59
2022/05/16 02:28:27;;;;;;;11.88;4.82;;;14.40;99.90;;;;;;5104917;28;20736;-59
2022/05/16 02:30:54;;;;;;;11.40;4.32;;;14.40;99.90;;;;;;5085577;28;20040;-59
2022/05/16 02:33:21;;;;;;;11.75;4.68;;;14.30;99.90;;;;;;5103160;28;20067;-59
2022/05/16 02:35:47;;;;;;;9.50;3.97;;;14.30;99.90;;;;;;5099422;28;20043;-59
2022/05/16 02:38:14;;;;;;;13.02;4.53;;;14.30;99.90;;;;;;5103898;28;20119;-59
2022/05/16 02:40:41;;;;;;;11.70;4.60;;;14.20;99.90;;;;;;5102646;28;20050;-59
2022/05/16 02:43:07;;;;;;;10.20;4.25;;;14.20;99.90;;;;;;5104444;28;20031;-60
2022/05/16 02:45:33;;;;;;;11.63;4.43;;;14.20;99.90;;;;;;5098746;28;20047;-59
2022/05/16 02:47:59;;;;;;;9.77;4.65;;;14.20;99.90;;;;;;5102884;28;20089;-59
2022/05/16 02:50:26;;;;;;;10.30;4.05;;;14.20;99.90;;;;;;5104521;28;20047;-60
2022/05/16 02:52:52;;;;;;;9.77;4.22;;;14.10;99.90;;;;;;5085887;28;20043;-59
2022/05/16 02:55:18;;;;;;;11.85;4.50;;;14.10;99.90;;;;;;5102111;28;20044;-60
2022/05/16 02:57:44;;;;;;;14.82;4.82;;;14.10;99.90;;;;;;5085163;28;20032;-59
2022/05/16 03:00:12;;;;;;;10.70;4.60;;;14.20;99.90;;;;;;5100907;28;20048;-59
2022/05/16 03:02:39;;;;;;;11.52;4.88;;;14.20;99.90;;;;;;5103162;28;20039;-59
2022/05/16 03:05:06;;;;;;;10.77;4.43;;;14.20;99.90;;;;;;5084522;28;20521;-59
2022/05/16 03:07:32;;;;;;;11.23;4.43;;;14.20;99.90;;;;;;5086480;28;20035;-59
2022/05/16 03:09:58;;;;;;;12.32;4.50;;;14.20;99.90;;;;;;5085324;28;20480;-60
2022/05/16 03:12:24;;;;;;;11.05;3.88;;;14.10;99.90;;;;;;5104455;28;20048;-60
2022/05/16 03:14:49;;;;;;;8.95;4.18;;;14.20;99.90;;;;;;5101549;28;20445;-59
2022/05/16 03:17:15;;;;;;;10.23;4.05;;;14.10;99.90;;;;;;5101772;28;20352;-59
2022/05/16 03:19:40;;;;;;;11.45;4.38;;;14.10;99.90;;;;;;5103708;28;20118;-59
2022/05/16 03:22:06;;;;;;;10.75;4.70;;;14.00;99.90;;;;;;5101909;28;20084;-59
2022/05/16 03:24:33;;;;;;;11.77;4.60;;;14.00;99.90;;;;;;5102890;28;20451;-59
2022/05/16 03:27:00;;;;;;;8.60;3.75;;;14.00;99.90;;;;;;5084300;28;20043;-59
2022/05/16 03:29:25;;;;;;;11.40;4.22;;;14.00;99.90;;;;;;5101569;28;20043;-59
2022/05/16 03:31:53;;;;;;;13.82;4.40;;;13.90;99.90;;;;;;5086508;28;20032;-59
2022/05/16 03:34:19;;;;;;;10.07;4.80;;;13.90;99.90;;;;;;5103791;28;20376;-59
2022/05/16 03:36:45;;;;;;;10.88;4.60;;;13.90;99.90;;;;;;5099995;28;20036;-59
2022/05/16 03:41:56;;;;;;;7.85;3.90;;;13.90;99.90;;;;;;5099597;28;20032;-59
2022/05/16 03:44:23;;;;;;;11.90;3.92;;;13.90;99.90;;;;;;5103502;28;20047;-60
2022/05/16 03:46:48;;;;;;;12.07;4.47;;;13.90;99.90;;;;;;5096762;28;20048;-60
2022/05/16 03:49:14;;;;;;;13.52;4.35;;;13.80;99.90;;;;;;5102341;28;20044;-59
2022/05/16 03:51:41;;;;;;;13.02;4.18;;;13.90;99.90;;;;;;5102948;28;20044;-60
2022/05/16 03:54:06;;;;;;;10.82;4.57;;;13.90;99.90;;;;;;5101372;28;20035;-59
2022/05/16 03:56:33;;;;;;;12.07;4.55;;;13.80;99.90;;;;;;5100076;28;20046;-59
2022/05/16 03:58:58;;;;;;;12.10;4.50;;;13.80;99.90;;;;;;5102489;28;20105;-60
2022/05/16 04:01:26;;;;;;;12.45;4.38;;;13.80;99.90;;;;;;5101023;28;20482;-59
2022/05/16 04:03:51;;;;;;;10.05;4.47;;;13.80;99.90;;;;;;5102647;28;20479;-60
2022/05/16 04:06:18;;;;;;;9.40;4.40;;;13.90;99.90;;;;;;5099535;28;20040;-61
2022/05/16 04:08:44;;;;;;;11.48;4.30;;;13.90;99.90;;;;;;5084013;28;20559;-59
2022/05/16 04:11:11;;;;;;;10.63;4.20;;;13.90;99.90;;;;;;5102337;28;20046;-59
2022/05/16 04:13:37;;;;;;;9.38;4.13;;;13.90;99.90;;;;;;5085771;28;20038;-61
2022/05/16 04:16:03;;;;;;;8.52;3.97;;;13.90;99.90;;;;;;5097990;28;20546;-59
2022/05/16 04:18:29;;;;;;;8.15;3.70;;;13.90;99.90;;;;;;5102897;28;20039;-60
2022/05/16 04:20:55;;;;;;;10.57;4.00;;;13.90;99.90;;;;;;5102293;28;20032;-60
2022/05/16 04:23:20;;;;;;;11.73;4.15;;;13.90;99.90;;;;;;5101010;28;21464;-59
2022/05/16 04:25:46;;;;;;;11.65;4.47;;;13.90;99.90;;;;;;5098392;28;20456;-59
2022/05/16 04:28:12;;;;;;;12.40;4.30;;;13.90;99.90;;;;;;5098991;28;20528;-59
2022/05/16 04:30:39;;;;;;;10.40;4.13;;;13.90;99.90;;;;;;5095601;28;20051;-59
2022/05/16 04:33:06;;;;;;;10.68;3.95;;;13.90;99.90;;;;;;5102681;28;20028;-59
2022/05/16 04:35:32;;;;;;;12.82;4.80;;;14.00;99.90;;;;;;5100353;28;20050;-59
2022/05/16 04:37:57;;;;;;;9.45;4.60;;;13.90;99.90;;;;;;5099746;28;20350;-59
2022/05/16 04:40:23;;;;;;;10.00;3.63;;;14.00;99.90;;;;;;5102444;28;20047;-60
2022/05/16 04:42:49;;;;;;;10.13;4.22;;;14.00;99.90;;;;;;5099143;28;20032;-59
2022/05/16 04:45:24;;;;;;;11.85;4.20;;;14.00;99.90;;;;;;5098797;28;20453;-61
2022/05/16 04:47:53;;;;;;;11.25;3.63;;;14.10;99.90;;;;;;5097479;28;20114;-59
2022/05/16 04:50:28;;;;;;;11.00;4.20;;;14.10;99.90;;;;;;5101872;28;20476;-59
2022/05/16 04:52:55;;;;;;;11.27;4.40;;;14.40;99.90;;;;;;5099619;28;20036;-59
2022/05/16 04:55:21;;;;;;;10.50;3.60;;;14.70;99.90;;;;;;5080208;28;20062;-60
2022/05/16 04:57:47;;;;;;;10.38;4.00;;;15.10;99.90;;;;;;5090218;28;20123;-59
2022/05/16 05:00:17;;;;;;;12.95;4.30;;;15.60;99.90;;;;;;5088840;28;20115;-59
2022/05/16 05:02:44;;;;;;;10.32;4.30;;;16.00;99.90;;;;;;5071271;28;20119;-59
2022/05/16 05:05:10;;;;;;;13.80;3.95;;;15.60;99.90;;;;;;5083658;28;20054;-60
2022/05/16 05:07:37;;;;;;;12.57;4.40;;;15.70;99.90;;;;;;5087065;28;20037;-59
2022/05/16 05:15:36;;;;;;;9.10;3.45;;;17.20;99.90;;;;;;5080074;28;20048;-60
2022/05/16 05:18:03;;;;;;;12.63;3.92;;;17.70;99.90;;;;;;5085346;28;20522;-60
2022/05/16 05:20:29;;;;;;;12.43;3.97;;;18.10;99.90;;;;;;5047777;28;20089;-60
2022/05/16 05:22:54;;;;;;;13.13;3.60;;;18.40;99.90;;;;;;5083507;28;20040;-60
2022/05/16 05:25:20;;;;;;;10.82;3.72;;;18.80;99.90;;;;;;5098432;28;20112;-60
2022/05/16 05:27:48;;;;;;;10.75;3.35;;;19.00;99.90;;;;;;5077786;28;20036;-59
2022/05/16 05:30:23;;;;;;;11.23;3.70;;;19.00;99.90;;;;;;5100197;28;20507;-61
2022/05/16 05:32:50;;;;;;;9.88;4.07;;;19.20;99.90;;;;;;5099061;28;20078;-59
2022/05/16 05:35:17;;;;;;;9.02;3.58;;;19.10;99.90;;;;;;5066257;28;20058;-60
2022/05/16 05:37:43;;;;;;;8.57;3.55;;;19.40;99.90;;;;;;5099311;28;20051;-59
2022/05/16 05:40:10;;;;;;;11.10;3.97;;;19.50;99.90;;;;;;5102381;28;20041;-59
2022/05/16 05:42:37;;;;;;;9.60;4.53;;;19.70;99.90;;;;;;5065596;28;20044;-59
2022/05/16 05:45:04;;;;;;;8.13;3.80;;;20.00;99.70;;;;;;5097112;28;20044;-60
2022/05/16 05:47:30;;;;;;;8.82;3.50;;;20.20;99.60;;;;;;5085606;28;20055;-59
2022/05/16 05:49:56;;;;;;;9.15;3.88;;;20.20;99.50;;;;;;5071510;28;20067;-60
2022/05/16 05:52:21;;;;;;;8.18;3.75;;;20.20;99.60;;;;;;5085275;28;20090;-58
2022/05/16 05:54:48;;;;;;;7.90;3.70;;;19.90;99.40;;;;;;5100686;28;20148;-58
2022/05/16 05:57:16;;;;;;;13.02;4.22;;;19.70;99.70;;;;;;5100231;28;20109;-58
2022/05/16 05:59:42;;;;;;;7.88;3.70;;;19.80;99.90;;;;;;5099216;28;20048;-60
2022/05/16 06:02:09;;;;;;;14.13;4.57;;;19.90;99.80;;;;;;5101415;28;20031;-60
2022/05/16 06:04:35;;;;;;;11.73;4.03;;;19.90;99.60;;;;;;5082726;28;20032;-59
2022/05/16 06:07:02;;;;;;;10.25;3.50;;;20.30;99.30;;;;;;5098965;28;20058;-59
2022/05/16 06:09:27;;;;;;;12.25;3.88;;;20.70;99.00;;;;;;5088356;28;20183;-60
2022/05/16 06:11:53;;;;;;;13.35;3.90;;;21.00;98.70;;;;;;5087934;28;20430;-60
2022/05/16 06:14:19;;;;;;;9.00;3.45;;;21.40;98.20;;;;;;5068914;28;20040;-61
2022/05/16 06:16:44;;;;;;;9.02;4.10;;;21.70;97.90;;;;;;5089855;28;20039;-60
2022/05/16 06:19:11;;;;;;;10.98;3.78;;;21.90;96.90;;;;;;5088207;28;20051;-60
2022/05/16 06:21:38;;;;;;;11.52;3.78;;;21.80;96.60;;;;;;5087266;28;20451;-61
2022/05/16 06:25:31;;;;;;;11.88;3.63;;;21.60;97.10;;;;;;5104971;28;20051;-60
2022/05/16 06:26:58;;;;;;;9.48;3.63;;;21.60;97.20;;;;;;5087998;28;20054;-61
2022/05/16 06:29:25;;;;;;;9.73;3.97;;;21.60;97.20;;;;;;5087941;28;20660;-60
2022/05/16 06:31:51;;;;;;;12.70;4.03;;;21.70;97.40;;;;;;5075976;28;20047;-60
2022/05/16 06:34:17;;;;;;;9.52;3.50;;;22.20;96.90;;;;;;5098650;28;20044;-60
2022/05/16 06:36:42;;;;;;;8.38;3.35;;;22.10;96.60;;;;;;5082783;28;20028;-60
2022/05/16 06:39:08;;;;;;;9.82;3.47;;;22.40;96.40;;;;;;5099149;28;20052;-61
2022/05/16 06:41:34;;;;;;;11.93;4.35;;;22.60;96.30;;;;;;5099633;28;20027;-60
2022/05/16 06:44:01;;;;;;;12.45;3.53;;;22.90;96.00;;;;;;5100296;28;20045;-61
2022/05/16 06:46:27;;;;;;;11.00;3.75;;;23.10;95.50;;;;;;5095359;28;20032;-60
2022/05/16 06:48:53;;;;;;;10.20;3.60;;;23.20;95.20;;;;;;5098325;28;20040;-61
2022/05/16 06:51:18;;;;;;;8.40;3.55;;;23.40;95.30;;;;;;5100281;28;20044;-59
2022/05/16 06:53:44;;;;;;;10.57;3.72;;;23.60;94.50;;;;;;5095988;28;20043;-60
2022/05/16 06:56:10;;;;;;;9.48;3.80;;;22.80;95.00;;;;;;5102512;28;20050;-59
2022/05/16 06:58:36;;;;;;;10.50;3.92;;;22.90;95.30;;;;;;5102180;28;20041;-59
2022/05/16 07:01:01;;;;;;;12.25;4.13;;;23.10;95.10;;;;;;5101807;28;20093;-59
2022/05/16 07:03:27;;;;;;;12.93;4.38;;;22.80;95.20;;;;;;5104754;28;20043;-59
2022/05/16 07:05:53;;;;;;;11.70;3.67;;;22.90;95.70;;;;;;5101266;28;20058;-61
2022/05/16 07:08:22;;;;;;;8.07;3.35;;;22.60;95.70;;;;;;5103189;28;20111;-61
2022/05/16 07:10:50;;;;;;;9.45;3.80;;;22.50;96.00;;;;;;5099051;28;20090;-60
2022/05/16 07:13:16;;;;;;;10.05;3.40;;;22.30;96.40;;;;;;5103897;28;20040;-60
2022/05/16 07:15:42;;;;;;;11.48;4.05;;;22.20;96.50;;;;;;5101819;28;20066;-60
2022/05/16 07:18:08;;;;;;;9.00;3.90;;;22.00;96.50;;;;;;5087347;28;20059;-60
2022/05/16 07:20:35;;;;;;;10.68;3.95;;;22.00;96.60;;;;;;5102372;28;20055;-60
2022/05/16 07:23:02;;;;;;;9.93;3.60;;;22.00;96.90;;;;;;5101993;28;20080;-59
2022/05/16 07:25:29;;;;;;;12.73;4.07;;;22.10;96.90;;;;;;5101252;28;20092;-59
2022/05/16 07:27:57;;;;;;;12.40;3.20;;;22.40;97.10;;;;;;5101320;28;20146;-59
2022/05/16 07:30:27;;;;;;;11.85;3.70;;;22.50;96.80;;;;;;5104716;28;20039;-61
2022/05/16 07:32:54;;;;;;;8.82;3.70;;;22.70;96.70;;;;;;5085794;28;20461;-60
2022/05/16 07:35:22;;;;;;;7.75;3.58;;;22.80;96.50;;;;;;5082222;28;20072;-61
2022/05/16 07:37:48;;;;;;;11.93;4.18;;;22.80;96.50;;;;;;5099654;28;20542;-60
2022/05/16 07:40:16;;;;;;;9.90;3.35;;;23.00;96.30;;;;;;5100630;28;20036;-60
2022/05/16 07:42:42;;;;;;;11.90;4.03;;;23.10;96.40;;;;;;5103385;28;20495;-60
2022/05/16 07:45:09;;;;;;;8.07;3.33;;;23.20;96.10;;;;;;5094393;28;20032;-60
2022/05/16 07:47:34;;;;;;;8.88;3.75;;;23.20;96.20;;;;;;5090082;28;20032;-60
2022/05/16 07:50:01;;;;;;;10.57;3.30;;;23.20;96.20;;;;;;5102501;28;20101;-61
2022/05/16 07:52:28;;;;;;;10.73;3.92;;;23.10;95.90;;;;;;5095774;28;20072;-61
2022/05/16 07:54:54;;;;;;;11.05;3.80;;;23.10;95.80;;;;;;5101118;28;20523;-60
2022/05/16 07:57:20;;;;;;;8.63;3.70;;;23.30;96.00;;;;;;5099491;28;20044;-60
2022/05/16 07:59:46;;;;;;;9.75;3.35;;;23.40;96.10;;;;;;5098849;28;20044;-60
2022/05/16 08:02:13;;;;;;;13.18;4.10;;;23.50;95.80;;;;;;5102753;28;20470;-61
2022/05/16 08:04:39;;;;;;;9.27;3.80;;;23.60;95.50;;;;;;5103365;28;20376;-60
2022/05/16 08:07:06;;;;;;;8.43;3.65;;;23.70;95.50;;;;;;5097012;28;20043;-60
2022/05/16 08:12:32;;;;;;;11.35;3.88;;;23.60;95.90;;;;;;5099523;28;20070;-60
2022/05/16 08:14:58;;;;;;;10.50;3.90;;;23.80;95.80;;;;;;5099360;28;20036;-61
2022/05/16 08:17:24;;;;;;;9.38;3.50;;;24.00;95.90;;;;;;5103529;28;20317;-61
2022/05/16 08:19:50;;;;;;;9.52;3.50;;;24.10;95.80;;;;;;5100767;28;20093;-61
2022/05/16 08:22:17;;;;;;;10.23;3.55;;;24.10;95.50;;;;;;5087833;27;20035;-61
2022/05/16 08:24:43;;;;;;;8.95;3.30;;;24.20;95.50;;;;;;5105841;27;20043;-60
2022/05/16 08:27:09;;;;;;;11.15;4.10;;;24.20;95.70;;;;;;5101703;27;20498;-59
2022/05/16 08:29:34;;;;;;;11.10;3.80;;;24.30;95.70;;;;;;5104616;27;20035;-60
2022/05/16 08:32:03;;;;;;;9.23;3.78;;;24.50;95.70;;;;;;5106933;27;20047;-61
2022/05/16 08:34:29;;;;;;;10.38;3.75;;;24.60;95.20;;;;;;5085384;27;20055;-60
2022/05/16 08:39:53;;;;;;;8.48;3.55;;;24.90;94.80;;;;;;5102433;28;20066;-60
2022/05/16 08:42:41;;;;;;;11.25;3.80;;;24.90;94.80;;;;;;5100529;27;20495;-61
2022/05/16 08:45:17;;;;;;;11.57;3.85;;;25.20;94.80;;;;;;5100017;28;20413;-61
2022/05/16 08:47:55;;;;;;;12.23;4.03;;;25.30;93.90;;;;;;5103057;27;20316;-61
2022/05/16 08:50:38;;;;;;;8.57;3.40;;;25.30;93.50;;;;;;5103664;27;21248;-60
2022/05/16 08:53:39;;;;;;;9.18;3.78;;;25.30;93.60;;;;;;5107615;27;20053;-60
2022/05/16 08:56:08;;;;;;;8.85;3.70;;;25.20;93.50;;;;;;5105313;27;20071;-59
2022/05/16 08:58:48;;;;;;;8.38;3.80;;;25.20;93.60;;;;;;5105333;27;20456;-60
2022/05/16 09:01:21;;;;;;;9.60;3.63;;;25.20;93.70;;;;;;5103607;27;20100;-60
2022/05/16 09:03:52;;;;;;;9.80;3.72;;;25.30;93.90;;;;;;5101237;27;20373;-59
2022/05/16 09:06:22;;;;;;;10.45;3.80;;;25.20;93.40;;;;;;5101317;27;20038;-61
2022/05/16 09:09:06;;;;;;;7.68;3.08;;;25.30;93.50;;;;;;5102413;27;20047;-60
2022/05/16 09:11:38;;;;;;;13.27;4.10;;;25.20;93.50;;;;;;5100426;27;20383;-59
2022/05/16 09:14:09;;;;;;;7.95;3.72;;;25.20;93.70;;;;;;5105269;27;20449;-59
2022/05/16 09:16:38;;;;;;;11.35;3.97;;;25.30;93.50;;;;;;5097702;27;20393;-59
2022/05/16 09:19:36;;;;;;;7.65;4.07;;;25.20;93.70;;;;;;5103305;27;20398;-59
2022/05/16 09:22:23;;;;;;;12.18;3.97;;;25.20;93.60;;;;;;5036754;28;20050;-59
2022/05/16 09:24:58;;;;;;;8.80;3.80;;;25.40;94.00;;;;;;5100265;27;20057;-59
2022/05/16 09:30:24;;;;;;;16.25;3.92;;;25.60;94.20;;;;;;5119950;27;20046;-60
2022/05/16 09:32:57;;;;;;;9.95;3.75;;;25.80;94.20;;;;;;5083725;27;20440;-60
2022/05/16 09:35:37;;;;;;;10.23;3.90;;;26.00;94.20;;;;;;5103167;28;20039;-60
2022/05/16 09:38:03;;;;;;;14.73;4.25;;;26.00;93.70;;;;;;5102851;27;20043;-60
2022/05/16 09:40:58;;;;;;;15.25;4.35;;;25.80;93.60;;;;;;5103341;27;20039;-59
2022/05/16 09:43:25;;;;;;;14.30;4.53;;;25.60;93.60;;;;;;5095010;27;20357;-59
2022/05/16 09:46:01;;;;;;;11.55;4.53;;;25.40;94.10;;;;;;5100847;27;20787;-60
2022/05/16 09:48:26;;;;;;;9.55;4.45;;;25.30;95.40;;;;;;5083935;28;20096;-59
2022/05/16 09:51:04;;;;;;;10.00;4.13;;;25.20;95.90;;;;;;5104408;28;20421;-59
2022/05/16 09:53:41;;;;;;;13.23;4.40;;;25.00;96.00;;;;;;5102458;27;20094;-59
2022/05/16 09:56:17;;;;;;;14.40;4.43;;;24.90;97.20;;;;;;5079897;28;20035;-59
2022/05/16 09:58:56;;;;;;;11.93;4.18;;;24.70;98.80;;;;;;5104901;28;20122;-59
2022/05/16 10:01:35;;;;;;;12.00;4.93;;;24.50;99.70;;;;;;5105512;28;20039;-60
2022/05/16 10:04:13;;;;;;;11.68;4.13;;;24.30;99.90;;;;;;5105348;28;20057;-60
2022/05/16 10:06:43;;;;;;;11.77;4.60;;;24.20;99.90;;;;;;5100570;28;20042;-59
2022/05/16 10:09:14;;;;;;;7.95;3.95;;;24.10;99.90;;;;;;5093446;28;20060;-60
2022/05/16 10:11:45;;;;;;;14.23;4.43;;;24.00;99.90;;;;;;5083063;28;20048;-59
2022/05/16 10:14:11;;;;;;;10.35;4.55;;;24.10;99.90;;;;;;5079873;28;20047;-59
2022/05/16 10:16:41;;;;;;;10.95;4.90;;;24.10;99.90;;;;;;5080075;28;20028;-59
2022/05/16 10:19:11;;;;;;;11.20;4.85;;;24.10;99.90;;;;;;5077702;28;20036;-60
2022/05/16 10:21:41;;;;;;;11.27;5.10;;;24.20;99.90;;;;;;5083092;28;20036;-59
2022/05/16 10:24:11;;;;;;;11.40;4.57;;;24.20;99.90;;;;;;5079172;28;20399;-59
2022/05/16 10:26:44;;;;;;;11.05;4.85;;;24.20;99.90;;;;;;5081283;28;20044;-59
2022/05/16 10:29:22;;;;;;;11.27;4.68;;;24.10;99.10;;;;;;5081393;28;20119;-60
2022/05/16 10:34:52;;;;;;;9.55;4.53;;;24.10;99.00;;;;;;5082995;28;20472;-60
2022/05/16 10:37:19;;;;;;;9.75;4.00;;;24.20;98.70;;;;;;5082586;28;20055;-59
2022/05/16 10:40:11;;;;;;;11.88;4.40;;;24.20;98.40;;;;;;5085880;28;20444;-59
2022/05/16 10:42:54;;;;;;;7.63;3.75;;;24.30;98.30;;;;;;5069902;28;20162;-60
2022/05/16 10:45:24;;;;;;;7.93;3.60;;;24.40;98.30;;;;;;5085000;28;20036;-61
2022/05/16 10:48:00;;;;;;;10.23;4.10;;;24.50;98.20;;;;;;5084437;28;20036;-60
2022/05/16 10:50:47;;;;;;;10.30;3.80;;;24.60;97.90;;;;;;5085919;28;20032;-60
2022/05/16 10:53:34;;;;;;;9.25;3.80;;;24.70;97.40;;;;;;5085051;28;20155;-60
2022/05/16 10:56:15;;;;;;;8.10;3.90;;;24.90;97.50;;;;;;5084373;28;20074;-60
2022/05/16 10:59:15;;;;;;;9.00;3.80;;;25.00;97.40;;;;;;5086535;28;20050;-63
2022/05/16 11:01:48;;;;;;;7.50;3.80;;;25.00;96.70;;;;;;5084336;28;20039;-61
2022/05/16 11:04:51;;;;;;;7.78;3.83;;;25.00;96.90;;;;;;5083115;28;20047;-60
2022/05/16 11:07:37;;;;;;;7.93;4.10;;;25.10;96.60;;;;;;5086122;28;20112;-61
2022/05/16 11:10:28;;;;;;;7.30;4.13;;;25.20;96.70;;;;;;5080704;28;20078;-61
2022/05/16 11:13:29;;;;;;;9.30;4.55;;;25.20;96.60;;;;;;5097640;28;20055;-61
2022/05/16 11:16:14;;;;;;;9.75;4.43;;;25.20;96.70;;;;;;5100326;28;20122;-61
2022/05/16 11:18:46;;;;;;;8.15;3.83;;;25.10;97.00;;;;;;5103352;28;20372;-61
2022/05/16 11:21:36;;;;;;;9.00;3.75;;;25.20;97.10;;;;;;5102410;28;20047;-60
2022/05/16 11:24:22;;;;;;;8.55;4.45;;;25.30;97.20;;;;;;5103835;28;20055;-61
2022/05/16 11:26:59;;;;;;;6.68;3.53;;;25.30;97.10;;;;;;5100026;28;20052;-60
2022/05/16 11:29:36;;;;;;;10.90;4.20;;;25.30;96.80;;;;;;5087566;28;20118;-60
2022/05/16 11:32:26;;;;;;;9.85;3.83;;;25.40;97.00;;;;;;5087413;28;20043;-61
2022/05/16 11:35:14;;;;;;;7.60;4.00;;;25.40;97.20;;;;;;5099515;28;20089;-60
2022/05/16 11:37:43;;;;;;;10.80;4.47;;;25.30;97.30;;;;;;5100795;28;20356;-60
2022/05/16 11:40:52;;;;;;;10.32;4.30;;;25.20;97.40;;;;;;5104925;28;20440;-61
2022/05/16 11:43:32;;;;;;;7.85;4.25;;;25.10;97.70;;;;;;5086367;28;20126;-61
2022/05/16 11:46:31;;;;;;;9.45;4.50;;;25.10;97.70;;;;;;5094930;28;20519;-64
2022/05/16 11:49:36;;;;;;;8.23;4.22;;;25.00;98.00;;;;;;5111856;27;20076;-61
2022/05/16 11:52:39;;;;;;;7.38;4.57;;;25.00;98.30;;;;;;5097642;28;20109;-63
2022/05/16 12:02:12;;;;;;;8.27;5.53;;;25.10;98.20;;;;;;5098019;28;20066;-61
2022/05/16 12:05:08;;;;;;;12.07;5.65;;;25.00;98.00;;;;;;5099216;28;20127;-61
2022/05/16 12:07:34;;;;;;;8.90;5.32;;;25.10;98.20;;;;;;5098648;28;20119;-61
2022/05/16 12:10:15;;;;;;;11.88;6.10;;;25.10;98.20;;;;;;5100870;28;20131;-61
2022/05/16 12:12:42;;;;;;;10.45;5.82;;;25.30;98.20;;;;;;5098157;28;20249;-62
2022/05/16 12:15:19;;;;;;;10.43;6.57;;;25.40;97.90;;;;;;5097828;28;20042;-61
2022/05/16 12:17:54;;;;;;;12.50;5.93;;;25.30;97.70;;;;;;5104678;28;20086;-60
2022/05/16 12:21:03;;;;;;;12.25;7.25;;;25.20;98.00;;;;;;5107896;28;20050;-62
2022/05/16 12:23:44;;;;;;;13.07;6.50;;;25.00;98.50;;;;;;5093388;28;20104;-60
2022/05/16 12:26:11;;;;;;;10.63;6.70;;;24.70;98.70;;;;;;5093941;28;20039;-59
2022/05/16 12:28:37;;;;;;;13.98;6.90;;;24.60;98.80;;;;;;5100033;28;20036;-59
2022/05/16 12:31:06;;;;;;;12.07;7.00;;;24.50;98.90;;;;;;5098959;28;20375;-60
2022/05/16 12:33:43;;;;;;;12.35;6.82;;;24.60;98.80;;;;;;5099780;28;20510;-60
2022/05/16 12:36:15;;;;;;;15.40;7.03;;;24.70;98.70;;;;;;5092528;28;20134;-60
2022/05/16 12:38:41;;;;;;;15.70;6.50;;;24.70;99.30;;;;;;5083278;28;20040;-60
2022/05/16 12:41:51;;;;;;;10.82;6.53;;;24.70;99.20;;;;;;5098471;28;20501;-60
2022/05/16 12:44:41;;;;;;;12.05;6.85;;;24.60;99.20;;;;;;5097027;28;20443;-60
2022/05/16 12:47:37;;;;;;;14.77;6.70;;;24.60;99.20;;;;;;5089696;28;20044;-60
2022/05/16 12:50:05;;;;;;;9.18;6.78;;;24.50;99.20;;;;;;5098175;28;20533;-60
2022/05/16 12:53:04;;;;;;;11.82;7.82;;;24.60;99.30;;;;;;5094685;28;20076;-60
2022/05/16 12:55:45;;;;;;;27.50;10.98;;;24.60;99.30;;;;;;5075627;28;20134;-60
2022/05/16 12:58:20;;;;;;;14.52;10.48;;;24.70;99.00;;;;;;5094069;28;20115;-60
2022/05/16 13:00:56;;;;;;;23.77;10.05;;;24.80;98.50;;;;;;5098702;28;20437;-60
2022/05/16 13:03:57;;;;;;;12.55;10.07;;;25.00;98.70;;;;;;5074607;28;20134;-60
2022/05/16 13:06:49;;;;;;;16.75;10.15;;;25.00;98.50;;;;;;5092981;28;20031;-60
2022/05/16 13:09:25;;;;;;;18.25;11.02;;;25.00;98.50;;;;;;5082047;28;20059;-60
2022/05/16 13:12:14;;;;;;;15.10;9.90;;;25.30;98.20;;;;;;5095087;28;20144;-61
2022/05/16 13:15:24;;;;;;;16.40;10.85;;;25.60;98.30;;;;;;5098324;28;20060;-61
2022/05/16 13:17:53;;;;;;;15.40;10.60;;;25.80;97.60;;;;;;5079524;28;20345;-61
2022/05/16 13:20:24;;;;;;;16.23;10.57;;;25.70;97.90;;;;;;5080621;28;20055;-62
2022/05/16 13:22:50;;;;;;;14.50;11.70;;;25.70;97.60;;;;;;5094018;28;20435;-61
2022/05/16 13:25:19;;;;;;;20.13;11.07;;;25.60;97.80;;;;;;5096191;28;20050;-60
2022/05/16 13:30:37;;;;;;;18.15;9.60;;;25.30;97.80;;;;;;5095450;28;20046;-60
2022/05/16 13:33:03;;;;;;;15.68;8.93;;;25.20;98.20;;;;;;5100101;28;20066;-60
2022/05/16 13:35:36;;;;;;;19.45;9.48;;;25.00;98.50;;;;;;5097818;28;20374;-60
2022/05/16 13:38:07;;;;;;;16.38;8.32;;;25.10;98.60;;;;;;5099269;28;20051;-60